sensor_id;sensor_type;location;lat;lon;timestamp;P1;durP1;ratioP1;P2;durP2;ratioP2
22877;SDS011;11606;45.404;12.148;2022-07-29T05:12:23;3.57;;;2.80;;
22877;SDS011;11606;45.404;12.148;2022-07-29T05:14:49;2.80;;;2.60;;
22877;SDS011;11606;45.404;12.148;2022-07-29T05:17:15;5.30;;;2.53;;
22877;SDS011;11606;45.404;12.148;2022-07-29T05:19:40;2.77;;;2.57;;
22877;SDS011;11606;45.404;12.148;2022-07-29T05:22:06;2.87;;;2.53;;
22877;SDS011;11606;45.404;12.148;2022-07-29T05:24:32;3.50;;;2.63;;
22877;SDS011;11606;45.404;12.148;2022-07-29T05:26:58;3.87;;;2.10;;
22877;SDS011;11606;45.404;12.148;2022-07-29T05:29:23;3.20;;;2.33;;
22877;SDS011;11606;45.404;12.148;2022-07-29T05:31:49;2.50;;;2.30;;
22877;SDS011;11606;45.404;12.148;2022-07-29T05:34:16;2.43;;;2.20;;
22877;SDS011;11606;45.404;12.148;2022-07-29T05:36:43;3.83;;;2.42;;
22877;SDS011;11606;45.404;12.148;2022-07-29T05:39:10;2.95;;;2.50;;
22877;SDS011;11606;45.404;12.148;2022-07-29T05:41:38;3.25;;;2.40;;
22877;SDS011;11606;45.404;12.148;2022-07-29T05:44:04;3.00;;;2.05;;
22877;SDS011;11606;45.404;12.148;2022-07-29T05:46:29;2.65;;;2.20;;
22877;SDS011;11606;45.404;12.148;2022-07-29T05:48:55;2.78;;;2.30;;
22877;SDS011;11606;45.404;12.148;2022-07-29T05:51:21;2.65;;;2.45;;
22877;SDS011;11606;45.404;12.148;2022-07-29T05:53:47;2.92;;;2.72;;
22877;SDS011;11606;45.404;12.148;2022-07-29T05:56:13;6.10;;;2.40;;
22877;SDS011;11606;45.404;12.148;2022-07-29T05:58:38;2.88;;;2.55;;
22877;SDS011;11606;45.404;12.148;2022-07-29T06:01:04;2.72;;;2.53;;
22877;SDS011;11606;45.404;12.148;2022-07-29T06:03:30;3.45;;;2.83;;
22877;SDS011;11606;45.404;12.148;2022-07-29T06:05:56;3.55;;;2.90;;
22877;SDS011;11606;45.404;12.148;2022-07-29T06:08:21;2.40;;;2.20;;
22877;SDS011;11606;45.404;12.148;2022-07-29T06:10:47;2.80;;;2.60;;
22877;SDS011;11606;45.404;12.148;2022-07-29T06:13:13;2.85;;;2.53;;
22877;SDS011;11606;45.404;12.148;2022-07-29T06:15:41;6.05;;;2.45;;
22877;SDS011;11606;45.404;12.148;2022-07-29T06:18:07;2.63;;;2.42;;
22877;SDS011;11606;45.404;12.148;2022-07-29T06:20:35;3.17;;;2.88;;
22877;SDS011;11606;45.404;12.148;2022-07-29T06:23:01;2.97;;;2.55;;
22877;SDS011;11606;45.404;12.148;2022-07-29T06:25:29;3.85;;;2.35;;
22877;SDS011;11606;45.404;12.148;2022-07-29T06:27:55;2.50;;;2.30;;
22877;SDS011;11606;45.404;12.148;2022-07-29T06:30:22;3.55;;;2.60;;
22877;SDS011;11606;45.404;12.148;2022-07-29T06:32:48;4.30;;;2.75;;
22877;SDS011;11606;45.404;12.148;2022-07-29T06:35:14;3.33;;;2.65;;
22877;SDS011;11606;45.404;12.148;2022-07-29T06:37:40;2.90;;;2.55;;
22877;SDS011;11606;45.404;12.148;2022-07-29T06:40:06;4.18;;;2.85;;
22877;SDS011;11606;45.404;12.148;2022-07-29T06:42:50;3.00;;;2.80;;
22877;SDS011;11606;45.404;12.148;2022-07-29T06:45:16;4.05;;;2.67;;
22877;SDS011;11606;45.404;12.148;2022-07-29T06:47:42;3.30;;;3.00;;
22877;SDS011;11606;45.404;12.148;2022-07-29T06:50:08;2.88;;;2.67;;
22877;SDS011;11606;45.404;12.148;2022-07-29T06:52:37;4.00;;;2.80;;
22877;SDS011;11606;45.404;12.148;2022-07-29T06:55:03;3.80;;;2.78;;
22877;SDS011;11606;45.404;12.148;2022-07-29T06:57:30;4.03;;;3.33;;
22877;SDS011;11606;45.404;12.148;2022-07-29T06:59:56;10.52;;;3.28;;
22877;SDS011;11606;45.404;12.148;2022-07-29T07:02:22;4.38;;;2.70;;
22877;SDS011;11606;45.404;12.148;2022-07-29T07:04:48;4.95;;;2.53;;
22877;SDS011;11606;45.404;12.148;2022-07-29T07:07:13;3.10;;;2.80;;
22877;SDS011;11606;45.404;12.148;2022-07-29T07:09:39;3.47;;;3.17;;
22877;SDS011;11606;45.404;12.148;2022-07-29T07:12:05;3.65;;;3.30;;
22877;SDS011;11606;45.404;12.148;2022-07-29T07:14:31;5.07;;;3.15;;
22877;SDS011;11606;45.404;12.148;2022-07-29T07:16:57;3.80;;;3.42;;
22877;SDS011;11606;45.404;12.148;2022-07-29T07:19:25;3.78;;;3.47;;
22877;SDS011;11606;45.404;12.148;2022-07-29T07:21:52;4.05;;;3.67;;
22877;SDS011;11606;45.404;12.148;2022-07-29T07:24:18;3.92;;;3.60;;
22877;SDS011;11606;45.404;12.148;2022-07-29T07:26:44;5.68;;;3.58;;
22877;SDS011;11606;45.404;12.148;2022-07-29T07:29:10;3.63;;;3.03;;
22877;SDS011;11606;45.404;12.148;2022-07-29T07:31:36;4.80;;;3.63;;
22877;SDS011;11606;45.404;12.148;2022-07-29T07:34:03;4.00;;;3.60;;
22877;SDS011;11606;45.404;12.148;2022-07-29T07:36:29;3.47;;;2.92;;
22877;SDS011;11606;45.404;12.148;2022-07-29T07:38:54;6.97;;;3.65;;
22877;SDS011;11606;45.404;12.148;2022-07-29T07:41:20;3.63;;;3.33;;
22877;SDS011;11606;45.404;12.148;2022-07-29T07:43:46;3.78;;;2.88;;
22877;SDS011;11606;45.404;12.148;2022-07-29T07:46:12;4.88;;;3.20;;
22877;SDS011;11606;45.404;12.148;2022-07-29T07:48:39;3.67;;;3.20;;
22877;SDS011;11606;45.404;12.148;2022-07-29T07:51:05;4.65;;;3.03;;
22877;SDS011;11606;45.404;12.148;2022-07-29T07:53:32;5.40;;;3.40;;
22877;SDS011;11606;45.404;12.148;2022-07-29T07:55:58;4.60;;;3.30;;
22877;SDS011;11606;45.404;12.148;2022-07-29T07:58:24;4.05;;;3.00;;
22877;SDS011;11606;45.404;12.148;2022-07-29T08:00:50;4.30;;;3.53;;
22877;SDS011;11606;45.404;12.148;2022-07-29T08:03:16;3.20;;;2.90;;
22877;SDS011;11606;45.404;12.148;2022-07-29T08:05:42;4.68;;;3.22;;
22877;SDS011;11606;45.404;12.148;2022-07-29T08:08:08;4.60;;;3.15;;
22877;SDS011;11606;45.404;12.148;2022-07-29T08:10:33;3.53;;;3.22;;
22877;SDS011;11606;45.404;12.148;2022-07-29T08:13:18;3.70;;;3.40;;
22877;SDS011;11606;45.404;12.148;2022-07-29T08:15:45;4.35;;;3.58;;
22877;SDS011;11606;45.404;12.148;2022-07-29T08:18:11;5.00;;;3.55;;
22877;SDS011;11606;45.404;12.148;2022-07-29T08:20:38;3.40;;;3.10;;
22877;SDS011;11606;45.404;12.148;2022-07-29T08:23:05;3.78;;;3.47;;
22877;SDS011;11606;45.404;12.148;2022-07-29T08:25:33;3.90;;;3.10;;
22877;SDS011;11606;45.404;12.148;2022-07-29T08:28:01;4.40;;;3.85;;
22877;SDS011;11606;45.404;12.148;2022-07-29T08:30:27;5.80;;;3.40;;
22877;SDS011;11606;45.404;12.148;2022-07-29T08:32:53;4.78;;;3.20;;
22877;SDS011;11606;45.404;12.148;2022-07-29T08:35:19;5.90;;;3.78;;
22877;SDS011;11606;45.404;12.148;2022-07-29T08:37:46;4.03;;;3.60;;
22877;SDS011;11606;45.404;12.148;2022-07-29T08:40:12;3.88;;;3.22;;
22877;SDS011;11606;45.404;12.148;2022-07-29T08:42:39;4.15;;;3.75;;
22877;SDS011;11606;45.404;12.148;2022-07-29T08:45:05;3.88;;;2.88;;
22877;SDS011;11606;45.404;12.148;2022-07-29T08:47:31;3.45;;;3.00;;
22877;SDS011;11606;45.404;12.148;2022-07-29T08:50:01;6.32;;;3.58;;
22877;SDS011;11606;45.404;12.148;2022-07-29T08:52:28;3.15;;;2.85;;
22877;SDS011;11606;45.404;12.148;2022-07-29T08:55:00;5.93;;;3.20;;
22877;SDS011;11606;45.404;12.148;2022-07-29T08:57:26;5.15;;;3.20;;
22877;SDS011;11606;45.404;12.148;2022-07-29T08:59:53;3.50;;;3.20;;
22877;SDS011;11606;45.404;12.148;2022-07-29T09:02:20;2.95;;;2.75;;
22877;SDS011;11606;45.404;12.148;2022-07-29T09:04:47;5.60;;;3.30;;
22877;SDS011;11606;45.404;12.148;2022-07-29T09:07:16;3.40;;;3.10;;
22877;SDS011;11606;45.404;12.148;2022-07-29T09:09:43;4.32;;;3.05;;
22877;SDS011;11606;45.404;12.148;2022-07-29T09:12:12;3.83;;;2.75;;
22877;SDS011;11606;45.404;12.148;2022-07-29T09:14:39;4.25;;;2.88;;
22877;SDS011;11606;45.404;12.148;2022-07-29T09:17:06;2.92;;;2.65;;
22877;SDS011;11606;45.404;12.148;2022-07-29T09:19:34;3.15;;;2.83;;
22877;SDS011;11606;45.404;12.148;2022-07-29T09:22:02;4.30;;;2.95;;
22877;SDS011;11606;45.404;12.148;2022-07-29T09:27:10;2.45;;;2.25;;
22877;SDS011;11606;45.404;12.148;2022-07-29T09:29:42;7.82;;;4.32;;
22877;SDS011;11606;45.404;12.148;2022-07-29T09:32:10;21.65;;;8.57;;
22877;SDS011;11606;45.404;12.148;2022-07-29T09:34:36;3.97;;;2.45;;
22877;SDS011;11606;45.404;12.148;2022-07-29T09:37:02;2.65;;;2.45;;
22877;SDS011;11606;45.404;12.148;2022-07-29T09:42:04;3.53;;;3.25;;
22877;SDS011;11606;45.404;12.148;2022-07-29T09:44:40;3.45;;;2.47;;
22877;SDS011;11606;45.404;12.148;2022-07-29T09:47:14;2.85;;;2.60;;
22877;SDS011;11606;45.404;12.148;2022-07-29T09:49:58;3.47;;;2.60;;
22877;SDS011;11606;45.404;12.148;2022-07-29T09:52:28;3.70;;;3.00;;
22877;SDS011;11606;45.404;12.148;2022-07-29T09:55:07;6.70;;;3.42;;
22877;SDS011;11606;45.404;12.148;2022-07-29T09:57:35;4.63;;;3.28;;
22877;SDS011;11606;45.404;12.148;2022-07-29T10:00:11;4.10;;;3.67;;
22877;SDS011;11606;45.404;12.148;2022-07-29T10:02:39;3.50;;;3.20;;
22877;SDS011;11606;45.404;12.148;2022-07-29T10:05:09;3.83;;;3.20;;
22877;SDS011;11606;45.404;12.148;2022-07-29T10:07:46;4.97;;;3.33;;
22877;SDS011;11606;45.404;12.148;2022-07-29T10:12:56;3.83;;;2.75;;
22877;SDS011;11606;45.404;12.148;2022-07-29T10:15:24;3.20;;;2.90;;
22877;SDS011;11606;45.404;12.148;2022-07-29T10:17:52;3.75;;;3.42;;
22877;SDS011;11606;45.404;12.148;2022-07-29T10:20:20;3.28;;;3.05;;
22877;SDS011;11606;45.404;12.148;2022-07-29T10:22:47;4.10;;;3.03;;
22877;SDS011;11606;45.404;12.148;2022-07-29T10:25:14;3.78;;;3.03;;
22877;SDS011;11606;45.404;12.148;2022-07-29T10:27:42;4.97;;;3.17;;
22877;SDS011;11606;45.404;12.148;2022-07-29T10:30:10;3.70;;;3.33;;
22877;SDS011;11606;45.404;12.148;2022-07-29T10:32:40;6.07;;;3.17;;
22877;SDS011;11606;45.404;12.148;2022-07-29T10:44:21;3.67;;;3.30;;
22877;SDS011;11606;45.404;12.148;2022-07-29T10:46:49;4.05;;;3.72;;
22877;SDS011;11606;45.404;12.148;2022-07-29T10:51:52;4.63;;;3.45;;
22877;SDS011;11606;45.404;12.148;2022-07-29T10:59:41;5.35;;;3.78;;
22877;SDS011;11606;45.404;12.148;2022-07-29T11:05:05;4.10;;;3.67;;
22877;SDS011;11606;45.404;12.148;2022-07-29T11:07:36;7.90;;;3.90;;
22877;SDS011;11606;45.404;12.148;2022-07-29T11:15:09;4.00;;;3.70;;
22877;SDS011;11606;45.404;12.148;2022-07-29T11:23:19;4.28;;;3.88;;
22877;SDS011;11606;45.404;12.148;2022-07-29T11:28:52;7.53;;;3.78;;
22877;SDS011;11606;45.404;12.148;2022-07-29T11:34:32;3.80;;;3.50;;
22877;SDS011;11606;45.404;12.148;2022-07-29T11:47:35;3.40;;;3.13;;
22877;SDS011;11606;45.404;12.148;2022-07-29T11:50:11;3.45;;;3.15;;
22877;SDS011;11606;45.404;12.148;2022-07-29T11:52:45;4.93;;;3.78;;
22877;SDS011;11606;45.404;12.148;2022-07-29T11:55:19;6.30;;;3.40;;
22877;SDS011;11606;45.404;12.148;2022-07-29T11:57:57;3.50;;;3.20;;
22877;SDS011;11606;45.404;12.148;2022-07-29T12:02:58;3.63;;;3.28;;
22877;SDS011;11606;45.404;12.148;2022-07-29T12:05:35;3.42;;;3.17;;
22877;SDS011;11606;45.404;12.148;2022-07-29T12:08:07;4.57;;;2.88;;
22877;SDS011;11606;45.404;12.148;2022-07-29T12:10:36;4.22;;;3.42;;
22877;SDS011;11606;45.404;12.148;2022-07-29T12:13:02;3.85;;;3.50;;
22877;SDS011;11606;45.404;12.148;2022-07-29T12:15:28;3.40;;;3.20;;
22877;SDS011;11606;45.404;12.148;2022-07-29T12:17:54;3.55;;;3.25;;
22877;SDS011;11606;45.404;12.148;2022-07-29T12:20:24;4.18;;;3.50;;
22877;SDS011;11606;45.404;12.148;2022-07-29T12:22:51;4.47;;;3.20;;
22877;SDS011;11606;45.404;12.148;2022-07-29T12:25:19;3.70;;;3.40;;
22877;SDS011;11606;45.404;12.148;2022-07-29T12:27:45;3.58;;;3.17;;
22877;SDS011;11606;45.404;12.148;2022-07-29T12:30:13;4.00;;;3.67;;
22877;SDS011;11606;45.404;12.148;2022-07-29T12:32:47;3.17;;;2.83;;
22877;SDS011;11606;45.404;12.148;2022-07-29T12:37:42;3.40;;;3.10;;
22877;SDS011;11606;45.404;12.148;2022-07-29T12:40:10;3.10;;;2.83;;
22877;SDS011;11606;45.404;12.148;2022-07-29T12:42:38;2.83;;;2.63;;
22877;SDS011;11606;45.404;12.148;2022-07-29T12:45:04;3.65;;;3.38;;
22877;SDS011;11606;45.404;12.148;2022-07-29T12:47:31;4.88;;;2.70;;
22877;SDS011;11606;45.404;12.148;2022-07-29T12:50:11;6.13;;;3.13;;
22877;SDS011;11606;45.404;12.148;2022-07-29T12:52:40;3.30;;;2.92;;
22877;SDS011;11606;45.404;12.148;2022-07-29T12:55:06;2.90;;;2.70;;
22877;SDS011;11606;45.404;12.148;2022-07-29T12:57:32;3.33;;;3.03;;
22877;SDS011;11606;45.404;12.148;2022-07-29T13:00:13;5.15;;;3.75;;
22877;SDS011;11606;45.404;12.148;2022-07-29T13:02:40;4.15;;;3.33;;
22877;SDS011;11606;45.404;12.148;2022-07-29T13:05:07;3.30;;;3.03;;
22877;SDS011;11606;45.404;12.148;2022-07-29T13:07:35;4.13;;;2.80;;
22877;SDS011;11606;45.404;12.148;2022-07-29T13:10:11;3.40;;;3.10;;
22877;SDS011;11606;45.404;12.148;2022-07-29T13:15:31;4.05;;;3.03;;
22877;SDS011;11606;45.404;12.148;2022-07-29T13:17:57;4.28;;;3.10;;
22877;SDS011;11606;45.404;12.148;2022-07-29T13:20:25;3.60;;;3.28;;
22877;SDS011;11606;45.404;12.148;2022-07-29T13:22:58;4.53;;;3.05;;
22877;SDS011;11606;45.404;12.148;2022-07-29T13:25:30;3.13;;;2.78;;
22877;SDS011;11606;45.404;12.148;2022-07-29T13:27:57;2.88;;;2.67;;
22877;SDS011;11606;45.404;12.148;2022-07-29T13:30:25;3.33;;;2.92;;
22877;SDS011;11606;45.404;12.148;2022-07-29T13:32:51;3.45;;;2.63;;
22877;SDS011;11606;45.404;12.148;2022-07-29T13:35:19;4.78;;;2.90;;
22877;SDS011;11606;45.404;12.148;2022-07-29T13:37:45;4.90;;;3.35;;
22877;SDS011;11606;45.404;12.148;2022-07-29T13:40:11;4.13;;;3.35;;
22877;SDS011;11606;45.404;12.148;2022-07-29T13:42:37;3.30;;;3.00;;
22877;SDS011;11606;45.404;12.148;2022-07-29T13:45:04;3.08;;;2.50;;
22877;SDS011;11606;45.404;12.148;2022-07-29T13:47:32;3.20;;;2.75;;
22877;SDS011;11606;45.404;12.148;2022-07-29T13:49:59;3.10;;;2.88;;
22877;SDS011;11606;45.404;12.148;2022-07-29T13:52:26;4.00;;;3.28;;
22877;SDS011;11606;45.404;12.148;2022-07-29T13:54:52;3.30;;;2.97;;
22877;SDS011;11606;45.404;12.148;2022-07-29T13:57:18;2.97;;;2.67;;
22877;SDS011;11606;45.404;12.148;2022-07-29T13:59:44;3.47;;;3.10;;
22877;SDS011;11606;45.404;12.148;2022-07-29T14:02:10;4.82;;;3.00;;
22877;SDS011;11606;45.404;12.148;2022-07-29T14:04:37;6.38;;;3.30;;
22877;SDS011;11606;45.404;12.148;2022-07-29T14:07:03;3.20;;;2.78;;
22877;SDS011;11606;45.404;12.148;2022-07-29T14:09:29;4.07;;;2.83;;
22877;SDS011;11606;45.404;12.148;2022-07-29T14:11:55;4.97;;;3.10;;
22877;SDS011;11606;45.404;12.148;2022-07-29T14:14:21;2.85;;;2.65;;
22877;SDS011;11606;45.404;12.148;2022-07-29T14:16:47;5.40;;;3.05;;
22877;SDS011;11606;45.404;12.148;2022-07-29T14:19:12;3.08;;;2.88;;
22877;SDS011;11606;45.404;12.148;2022-07-29T14:21:38;5.85;;;2.95;;
22877;SDS011;11606;45.404;12.148;2022-07-29T14:24:04;6.03;;;3.00;;
22877;SDS011;11606;45.404;12.148;2022-07-29T14:26:31;4.03;;;3.03;;
22877;SDS011;11606;45.404;12.148;2022-07-29T14:28:57;4.70;;;2.67;;
22877;SDS011;11606;45.404;12.148;2022-07-29T14:31:22;3.45;;;3.05;;
22877;SDS011;11606;45.404;12.148;2022-07-29T14:33:48;5.63;;;3.25;;
22877;SDS011;11606;45.404;12.148;2022-07-29T14:36:14;3.08;;;2.80;;
22877;SDS011;11606;45.404;12.148;2022-07-29T14:38:40;3.85;;;2.90;;
22877;SDS011;11606;45.404;12.148;2022-07-29T14:41:06;3.63;;;2.85;;
22877;SDS011;11606;45.404;12.148;2022-07-29T14:43:33;3.38;;;2.72;;
22877;SDS011;11606;45.404;12.148;2022-07-29T14:45:59;4.38;;;3.03;;
22877;SDS011;11606;45.404;12.148;2022-07-29T14:48:25;3.10;;;2.90;;
22877;SDS011;11606;45.404;12.148;2022-07-29T14:50:51;4.32;;;2.97;;
22877;SDS011;11606;45.404;12.148;2022-07-29T14:53:17;3.03;;;2.72;;
22877;SDS011;11606;45.404;12.148;2022-07-29T14:55:43;4.13;;;2.80;;
22877;SDS011;11606;45.404;12.148;2022-07-29T14:58:10;3.53;;;3.20;;
22877;SDS011;11606;45.404;12.148;2022-07-29T15:00:35;4.80;;;3.05;;
22877;SDS011;11606;45.404;12.148;2022-07-29T15:03:02;4.93;;;3.10;;
22877;SDS011;11606;45.404;12.148;2022-07-29T15:05:29;2.88;;;2.67;;
22877;SDS011;11606;45.404;12.148;2022-07-29T15:07:56;3.28;;;2.90;;
22877;SDS011;11606;45.404;12.148;2022-07-29T15:10:22;2.90;;;2.70;;
22877;SDS011;11606;45.404;12.148;2022-07-29T15:12:48;4.97;;;3.42;;
22877;SDS011;11606;45.404;12.148;2022-07-29T15:15:13;5.50;;;3.38;;
22877;SDS011;11606;45.404;12.148;2022-07-29T15:17:39;4.15;;;2.90;;
22877;SDS011;11606;45.404;12.148;2022-07-29T15:20:05;3.55;;;3.20;;
22877;SDS011;11606;45.404;12.148;2022-07-29T15:22:31;4.35;;;2.92;;
22877;SDS011;11606;45.404;12.148;2022-07-29T15:24:57;4.80;;;3.17;;
22877;SDS011;11606;45.404;12.148;2022-07-29T15:27:23;4.35;;;2.72;;
22877;SDS011;11606;45.404;12.148;2022-07-29T15:29:48;3.20;;;2.95;;
22877;SDS011;11606;45.404;12.148;2022-07-29T15:32:14;3.95;;;3.03;;
22877;SDS011;11606;45.404;12.148;2022-07-29T15:34:40;3.58;;;3.25;;
22877;SDS011;11606;45.404;12.148;2022-07-29T15:37:06;4.75;;;2.97;;
22877;SDS011;11606;45.404;12.148;2022-07-29T15:39:32;3.47;;;3.17;;
22877;SDS011;11606;45.404;12.148;2022-07-29T15:41:58;3.22;;;2.92;;
22877;SDS011;11606;45.404;12.148;2022-07-29T15:44:25;4.35;;;3.45;;
22877;SDS011;11606;45.404;12.148;2022-07-29T15:46:51;5.05;;;3.13;;
22877;SDS011;11606;45.404;12.148;2022-07-29T15:49:30;3.13;;;2.92;;
22877;SDS011;11606;45.404;12.148;2022-07-29T15:52:02;3.28;;;2.97;;
22877;SDS011;11606;45.404;12.148;2022-07-29T15:54:31;5.28;;;3.50;;
22877;SDS011;11606;45.404;12.148;2022-07-29T15:56:58;3.55;;;3.25;;
22877;SDS011;11606;45.404;12.148;2022-07-29T15:59:24;3.40;;;3.08;;
22877;SDS011;11606;45.404;12.148;2022-07-29T16:01:50;3.58;;;3.10;;
22877;SDS011;11606;45.404;12.148;2022-07-29T16:04:16;3.50;;;2.90;;
22877;SDS011;11606;45.404;12.148;2022-07-29T16:06:42;4.35;;;3.20;;
22877;SDS011;11606;45.404;12.148;2022-07-29T16:09:09;6.35;;;2.92;;
22877;SDS011;11606;45.404;12.148;2022-07-29T16:11:35;4.68;;;3.13;;
22877;SDS011;11606;45.404;12.148;2022-07-29T16:14:01;3.75;;;3.00;;
22877;SDS011;11606;45.404;12.148;2022-07-29T16:16:28;3.92;;;2.60;;
22877;SDS011;11606;45.404;12.148;2022-07-29T16:18:54;4.22;;;3.10;;
22877;SDS011;11606;45.404;12.148;2022-07-29T16:21:21;2.97;;;2.78;;
22877;SDS011;11606;45.404;12.148;2022-07-29T16:23:47;3.65;;;3.35;;
22877;SDS011;11606;45.404;12.148;2022-07-29T16:26:14;4.93;;;3.17;;
22877;SDS011;11606;45.404;12.148;2022-07-29T16:28:40;4.40;;;3.47;;
22877;SDS011;11606;45.404;12.148;2022-07-29T16:31:06;4.55;;;3.20;;
22877;SDS011;11606;45.404;12.148;2022-07-29T16:33:33;4.65;;;2.97;;
22877;SDS011;11606;45.404;12.148;2022-07-29T16:35:58;3.15;;;2.85;;
22877;SDS011;11606;45.404;12.148;2022-07-29T16:38:24;5.20;;;3.20;;
22877;SDS011;11606;45.404;12.148;2022-07-29T16:40:50;4.15;;;3.35;;
22877;SDS011;11606;45.404;12.148;2022-07-29T16:43:16;3.92;;;3.03;;
22877;SDS011;11606;45.404;12.148;2022-07-29T16:45:43;6.03;;;3.75;;
22877;SDS011;11606;45.404;12.148;2022-07-29T16:48:09;3.67;;;3.30;;
22877;SDS011;11606;45.404;12.148;2022-07-29T16:50:35;3.22;;;2.95;;
22877;SDS011;11606;45.404;12.148;2022-07-29T16:53:02;5.68;;;3.20;;
22877;SDS011;11606;45.404;12.148;2022-07-29T16:55:28;5.57;;;3.10;;
22877;SDS011;11606;45.404;12.148;2022-07-29T16:57:53;4.93;;;3.30;;
22877;SDS011;11606;45.404;12.148;2022-07-29T17:00:20;3.85;;;3.55;;
22877;SDS011;11606;45.404;12.148;2022-07-29T17:02:46;5.40;;;3.72;;
22877;SDS011;11606;45.404;12.148;2022-07-29T17:05:12;4.10;;;3.70;;
22877;SDS011;11606;45.404;12.148;2022-07-29T17:07:39;3.65;;;3.33;;
22877;SDS011;11606;45.404;12.148;2022-07-29T17:10:05;4.93;;;3.60;;
22877;SDS011;11606;45.404;12.148;2022-07-29T17:12:37;4.53;;;3.72;;
22877;SDS011;11606;45.404;12.148;2022-07-29T17:15:05;5.57;;;3.60;;
22877;SDS011;11606;45.404;12.148;2022-07-29T17:17:33;4.60;;;3.90;;
22877;SDS011;11606;45.404;12.148;2022-07-29T17:19:59;5.32;;;3.83;;
22877;SDS011;11606;45.404;12.148;2022-07-29T17:22:25;4.35;;;3.95;;
22877;SDS011;11606;45.404;12.148;2022-07-29T17:24:51;5.57;;;4.45;;
22877;SDS011;11606;45.404;12.148;2022-07-29T17:27:17;7.18;;;3.95;;
22877;SDS011;11606;45.404;12.148;2022-07-29T17:29:44;7.35;;;4.55;;
22877;SDS011;11606;45.404;12.148;2022-07-29T17:32:10;8.35;;;5.15;;
22877;SDS011;11606;45.404;12.148;2022-07-29T17:34:38;4.68;;;3.95;;
22877;SDS011;11606;45.404;12.148;2022-07-29T17:37:05;4.78;;;4.40;;
22877;SDS011;11606;45.404;12.148;2022-07-29T17:39:32;4.63;;;4.00;;
22877;SDS011;11606;45.404;12.148;2022-07-29T17:41:59;6.13;;;4.60;;
22877;SDS011;11606;45.404;12.148;2022-07-29T17:44:26;5.80;;;5.30;;
22877;SDS011;11606;45.404;12.148;2022-07-29T17:46:52;6.85;;;6.03;;
22877;SDS011;11606;45.404;12.148;2022-07-29T17:49:18;6.75;;;6.00;;
22877;SDS011;11606;45.404;12.148;2022-07-29T17:51:43;7.55;;;6.85;;
22877;SDS011;11606;45.404;12.148;2022-07-29T17:54:10;7.45;;;6.85;;
22877;SDS011;11606;45.404;12.148;2022-07-29T17:56:36;9.95;;;6.68;;
22877;SDS011;11606;45.404;12.148;2022-07-29T17:59:02;6.45;;;5.93;;
22877;SDS011;11606;45.404;12.148;2022-07-29T18:01:31;6.10;;;5.55;;
22877;SDS011;11606;45.404;12.148;2022-07-29T18:03:58;4.78;;;4.30;;
22877;SDS011;11606;45.404;12.148;2022-07-29T18:06:24;3.65;;;3.33;;
22877;SDS011;11606;45.404;12.148;2022-07-29T18:08:50;6.40;;;3.30;;
22877;SDS011;11606;45.404;12.148;2022-07-29T18:11:16;3.75;;;3.10;;
22877;SDS011;11606;45.404;12.148;2022-07-29T18:13:41;5.63;;;3.13;;
22877;SDS011;11606;45.404;12.148;2022-07-29T18:16:07;3.65;;;3.35;;
22877;SDS011;11606;45.404;12.148;2022-07-29T18:18:37;4.90;;;3.45;;
22877;SDS011;11606;45.404;12.148;2022-07-29T18:21:04;4.97;;;3.38;;
22877;SDS011;11606;45.404;12.148;2022-07-29T18:23:30;6.78;;;3.30;;
22877;SDS011;11606;45.404;12.148;2022-07-29T18:25:57;4.30;;;2.97;;
22877;SDS011;11606;45.404;12.148;2022-07-29T18:28:23;3.92;;;2.75;;
22877;SDS011;11606;45.404;12.148;2022-07-29T18:30:49;5.82;;;2.85;;
22877;SDS011;11606;45.404;12.148;2022-07-29T18:33:15;3.90;;;3.25;;
22877;SDS011;11606;45.404;12.148;2022-07-29T18:35:46;7.18;;;3.33;;
22877;SDS011;11606;45.404;12.148;2022-07-29T18:38:13;4.43;;;3.10;;
22877;SDS011;11606;45.404;12.148;2022-07-29T18:40:39;3.97;;;2.70;;
22877;SDS011;11606;45.404;12.148;2022-07-29T18:43:09;3.83;;;3.40;;
22877;SDS011;11606;45.404;12.148;2022-07-29T18:45:36;8.93;;;5.28;;
22877;SDS011;11606;45.404;12.148;2022-07-29T18:48:03;4.57;;;3.22;;
22877;SDS011;11606;45.404;12.148;2022-07-29T18:50:29;3.65;;;3.20;;
22877;SDS011;11606;45.404;12.148;2022-07-29T18:52:55;6.03;;;3.60;;
22877;SDS011;11606;45.404;12.148;2022-07-29T18:55:22;4.07;;;3.05;;
22877;SDS011;11606;45.404;12.148;2022-07-29T18:57:49;7.15;;;3.40;;
22877;SDS011;11606;45.404;12.148;2022-07-29T19:00:16;3.55;;;3.25;;
22877;SDS011;11606;45.404;12.148;2022-07-29T19:02:42;5.05;;;3.20;;
22877;SDS011;11606;45.404;12.148;2022-07-29T19:05:10;3.50;;;3.20;;
22877;SDS011;11606;45.404;12.148;2022-07-29T19:07:36;4.57;;;4.17;;
22877;SDS011;11606;45.404;12.148;2022-07-29T19:10:02;4.13;;;3.33;;
22877;SDS011;11606;45.404;12.148;2022-07-29T19:12:28;3.67;;;3.38;;
22877;SDS011;11606;45.404;12.148;2022-07-29T19:14:54;3.77;;;3.40;;
22877;SDS011;11606;45.404;12.148;2022-07-29T19:17:20;4.17;;;3.83;;
22877;SDS011;11606;45.404;12.148;2022-07-29T19:19:46;4.43;;;3.80;;
22877;SDS011;11606;45.404;12.148;2022-07-29T19:22:14;6.50;;;3.97;;
22877;SDS011;11606;45.404;12.148;2022-07-29T19:24:40;4.73;;;4.23;;
22877;SDS011;11606;45.404;12.148;2022-07-29T19:27:06;5.43;;;4.47;;
22877;SDS011;11606;45.404;12.148;2022-07-29T19:29:32;5.07;;;3.87;;
22877;SDS011;11606;45.404;12.148;2022-07-29T19:31:59;5.63;;;3.83;;
22877;SDS011;11606;45.404;12.148;2022-07-29T19:34:26;7.50;;;4.17;;
22877;SDS011;11606;45.404;12.148;2022-07-29T19:36:52;4.63;;;3.80;;
22877;SDS011;11606;45.404;12.148;2022-07-29T19:39:18;5.23;;;3.80;;
22877;SDS011;11606;45.404;12.148;2022-07-29T19:41:44;4.90;;;3.60;;
22877;SDS011;11606;45.404;12.148;2022-07-29T19:44:11;5.87;;;4.17;;
22877;SDS011;11606;45.404;12.148;2022-07-29T19:46:38;4.37;;;3.97;;
22877;SDS011;11606;45.404;12.148;2022-07-29T19:49:04;4.07;;;3.70;;
22877;SDS011;11606;45.404;12.148;2022-07-29T19:51:30;6.57;;;3.63;;
22877;SDS011;11606;45.404;12.148;2022-07-29T19:53:57;4.10;;;3.70;;
22877;SDS011;11606;45.404;12.148;2022-07-29T19:56:23;5.50;;;4.32;;
22877;SDS011;11606;45.404;12.148;2022-07-29T19:58:54;4.03;;;3.63;;
22877;SDS011;11606;45.404;12.148;2022-07-29T20:01:21;5.75;;;3.40;;
22877;SDS011;11606;45.404;12.148;2022-07-29T20:03:48;5.53;;;4.10;;
22877;SDS011;11606;45.404;12.148;2022-07-29T20:06:15;5.67;;;3.90;;
22877;SDS011;11606;45.404;12.148;2022-07-29T20:08:41;6.47;;;4.17;;
22877;SDS011;11606;45.404;12.148;2022-07-29T20:11:09;7.47;;;4.83;;
22877;SDS011;11606;45.404;12.148;2022-07-29T20:13:34;5.53;;;4.23;;
22877;SDS011;11606;45.404;12.148;2022-07-29T20:16:01;6.07;;;4.07;;
22877;SDS011;11606;45.404;12.148;2022-07-29T20:18:29;4.73;;;4.17;;
22877;SDS011;11606;45.404;12.148;2022-07-29T20:20:56;4.50;;;4.10;;
22877;SDS011;11606;45.404;12.148;2022-07-29T20:23:25;4.50;;;4.10;;
22877;SDS011;11606;45.404;12.148;2022-07-29T20:25:51;4.90;;;4.50;;
22877;SDS011;11606;45.404;12.148;2022-07-29T20:28:18;4.82;;;4.40;;
22877;SDS011;11606;45.404;12.148;2022-07-29T20:30:44;5.13;;;4.37;;
22877;SDS011;11606;45.404;12.148;2022-07-29T20:33:10;6.78;;;4.75;;
22877;SDS011;11606;45.404;12.148;2022-07-29T20:35:38;4.97;;;4.53;;
22877;SDS011;11606;45.404;12.148;2022-07-29T20:38:05;5.10;;;4.70;;
22877;SDS011;11606;45.404;12.148;2022-07-29T20:40:31;4.83;;;4.43;;
22877;SDS011;11606;45.404;12.148;2022-07-29T20:42:57;6.13;;;4.63;;
22877;SDS011;11606;45.404;12.148;2022-07-29T20:45:23;5.30;;;4.80;;
22877;SDS011;11606;45.404;12.148;2022-07-29T20:47:50;4.05;;;3.75;;